Monday, July 23, 2018, 11:42 AM GMT
Back to Local

CYHZ, Halifax International Airport

Location: , , Canada Lat: 44.883
Local Time: 11:42 AM GMT (11:42 GMT) Lon: -63.5
Time Zone: GMT Elev: 475 ft

Show me the last for .
Show Coded

Time T Td Feel RH Dir Speed Gust Alt SLP Vis Weather Sky Remarks
2018-07-23 11:12 70 70 - 100 220° 9 - 30.39 30.40 1 BR VV001 None
2018-07-23 11:00 70 70 - 100 210° 7 - 30.40 30.40 0 FG VV001 None
2018-07-23 10:00 68 68 - 100 190° 7 - 30.39 30.39 0 FG VV001 None
2018-07-23 09:40 68 68 - 100 200° 6 - 30.39 30.39 0 FG VV001 None
2018-07-23 09:00 68 68 - 100 210° 6 - 30.38 30.38 0 FG VV001 None
2018-07-23 08:00 70 70 - 100 210° 8 - 30.37 30.37 0 FG VV001 None
2018-07-23 07:00 70 70 - 100 210° 9 - 30.37 30.37 0 FG VV001 None
2018-07-23 06:00 70 70 - 100 210° 13 - 30.36 30.37 0 FG VV001 None
2018-07-23 05:20 70 70 - 100 210° 12 - 30.36 30.37 0 FG VV001 None
2018-07-23 05:00 70 70 - 100 210° 10 - 30.37 30.37 0 FG VV001 None
2018-07-23 04:00 70 70 - 100 210° 10 - 30.38 30.38 0 FG VV001 None
2018-07-23 03:35 70 70 - 100 200° 13 - 30.38 30.38 0 FG VV001 None
2018-07-23 03:26 70 70 - 100 200° 12 - 30.38 30.38 0 BR VV002 None
2018-07-23 03:20 70 70 - 100 200° 12 - 30.38 30.38 1 BR VV002 None
2018-07-23 03:00 70 70 - 100 200° 10 - 30.38 30.38 1 BR VV002 None
2018-07-23 02:31 70 70 - 100 190° 10 - 30.38 30.38 1 BR VV002 None
2018-07-23 02:00 70 70 - 100 200° 12 17 30.38 30.38 1 BR VV002 None
2018-07-23 01:51 70 70 - 100 200° 12 17 30.38 30.38 1 BR OVC002 None
2018-07-23 01:18 70 70 - 100 210° 14 - 30.38 30.38 2 BR OVC003 None
2018-07-23 01:00 70 70 - 100 210° 9 18 30.38 30.38 4 BR OVC003 None
2018-07-23 00:00 72 70 76 94 200° 12 18 30.36 30.36 10 OVC003 None
2018-07-22 23:47 72 70 76 94 200° 10 18 30.35 30.36 12 OVC004 None
2018-07-22 23:00 73 72 78 94 210° 10 18 30.35 30.35 15 BKN008 BKN260 None
2018-07-22 22:00 73 72 78 94 200° 12 17 30.33 30.34 12 OVC006 None
2018-07-22 21:00 73 72 78 94 200° 14 22 30.32 30.32 15 OVC006 None
2018-07-22 20:00 75 72 79 88 210° 12 21 30.32 30.32 15 OVC006 None
2018-07-22 19:00 73 72 78 94 190° 13 18 30.32 30.32 15 OVC007 None
2018-07-22 18:00 73 72 78 94 190° 12 - 30.31 30.31 8 OVC005 None
2018-07-22 17:51 73 72 78 94 200° 10 17 30.31 30.31 8 OVC005 None
2018-07-22 17:26 73 73 78 100 180° 8 - 30.31 30.32 8 OVC003 None
2018-07-22 17:00 72 72 76 100 180° 7 - 30.32 30.32 1 BR OVC002 None
2018-07-22 16:10 72 72 76 100 170° 8 - 30.32 30.32 1 BR OVC002 None
2018-07-22 16:00 72 72 76 100 170° 9 - 30.32 30.32 3 BR OVC003 None
2018-07-22 15:19 72 72 76 100 210° 6 - 30.31 30.32 2 BR OVC003 None
2018-07-22 15:00 70 70 - 100 170° 7 - 30.31 30.32 1 BR OVC002 None
2018-07-22 14:31 70 70 - 100 190° 5 - 30.32 30.32 1 BR OVC002 None
2018-07-22 14:18 68 68 - 100 160° 6 - 30.32 30.32 0 -SHRA BR VV002 None
2018-07-22 14:14 66 66 - 100 180° 6 - 30.32 30.32 0 -SHRA FG VV001 None
2018-07-22 14:00 66 66 - 100 170° 7 - 30.31 30.32 0 FG VV001 None
2018-07-22 13:50 64 64 - 100 150° 7 - 30.31 30.32 0 FG VV001 None
2018-07-22 13:00 64 64 - 100 130° 8 - 30.31 30.31 0 FG VV001 None
2018-07-22 12:48 64 64 - 100 130° 7 - 30.30 30.31 0 FG VV001 None
2018-07-22 12:23 63 63 - 100 150° 5 - 30.29 30.30 0 FG VV001 None
2018-07-22 12:19 63 63 - 100 150° 6 - 30.29 30.30 0 -SHRA BR VV002 None
2018-07-22 12:00 63 63 - 100 140° 5 - 30.29 30.29 1 -SHRA BR OVC003 None
2018-07-22 11:48 63 63 - 100 140° 7 - 30.29 30.29 1 -SHRA BR OVC003 None

Support USWX by starting your Amazon purchase here.